Terminal Aerodrome Forecast
Issued by NWS

Home | Current Version | Previous Version | Text Only | Print | Product List | Glossary On
Versions: 1 2 3 4 5 6 7 8 9 10 11 12 13 14
575
FTUS42 KMLB 081122
TAFISM
TAF
KISM 081122Z 0812/0912 26005KT P6SM SCT250
     FM081500 26012KT P6SM FEW040 SCT250
     FM081800 25017G22KT P6SM SCT040 SCT250
     FM090000 26015G20KT P6SM VCSH BKN040=

USA.gov is the U.S. government's official web portal to all federal, state and local government web resources and services.